sim
Sign-in with your pilot id or email,
or register
Callsign
Passwort

Schedule Details

Flight Number: DLH1637
Departure: Poznan Lawica Airport (EPPO) at 12:25
Arrival: Munich Airport (EDDM) at 13:40
Route: Lufthansa Passenger Schedule. Enter filed route here before submitting Pirep.

Weather Information
Getting current METAR information for EPPO 201600Z 08006KT CAVOK 20/05 Q1019
Getting current METAR information for EDDM 201550Z 04005KT CAVOK 21/10 Q1015 NOSIG

Schedule Frequency

Route Map